Terminal Aerodrome Forecast
Issued by NWS

Home | Current Version | Previous Version | Text Only | Print | Product List | Glossary On
Versions: 1 2 3 4 5 6 7 8 9 10 11 12 13 14 15 16 17 18 19 20 21 22 23 24 25 26 27 28 29 30 31 32 33 34 35 36 37 38 39 40
000
FTUS41 KILN 241747
TAFLUK
TAF
KLUK 241747Z 2418/2518 21006KT P6SM VCSH OVC120
     FM241900 21007KT P6SM -SHRA OVC080
     FM242200 18005KT P6SM VCSH OVC050
     FM250400 VRB03KT P6SM -RA OVC025
     FM250600 VRB03KT 4SM -RA BR OVC018
      TEMPO 2512/2515 2SM RA OVC009
     FM251500 03012G18KT 5SM BR VCSH OVC018=

USA.gov is the U.S. government's official web portal to all federal, state and local government web resources and services.